METAR Data
IDs: Format: Raw Decoded Include TAF

Data at: 2118 UTC 19 May 2019

KPRO 192115Z AUTO 29016G22KT 10SM SCT022 OVC029 12/10 A2982 RMK AO2 T01220096
KPRO 192055Z AUTO 29013G22KT 10SM SCT017 BKN025 OVC031 12/10 A2982 RMK AO2 T01200100
KPRO 192035Z AUTO 30013G23KT 10SM SCT014 OVC025 12/10 A2981 RMK AO2 T01200104
KPRO 192015Z AUTO 30013G21KT 10SM BKN014 BKN019 OVC025 12/11 A2980 RMK AO2 T01220110
KPRO 191955Z AUTO 30013KT 7SM BKN018 OVC022 12/11 A2979 RMK AO2 T01160105
KPRO 191935Z AUTO 29017G25KT 10SM OVC018 12/10 A2978 RMK AO2 T01170102
KPRO 191915Z AUTO 29019G23KT 10SM OVC018 12/11 A2977 RMK AO2 T01230106
KPRO 191855Z AUTO 28017G20KT 10SM OVC018 13/11 A2976 RMK AO2 T01250109
KPRO 191835Z AUTO 28017G25KT 10SM OVC016 12/11 A2976 RMK AO2 T01220107
KPRO 191815Z AUTO 28016G23KT 10SM OVC016 13/11 A2975 RMK AO2 T01250112
KPRO 191755Z AUTO 28015KT 10SM OVC016 13/12 A2974 RMK AO2 60002 T01280116 10147 20120
KPRO 191735Z AUTO 30011G18KT 10SM OVC014 13/12 A2972 RMK AO2 T01260117
KPRO 191715Z AUTO 30010G16KT 10SM BKN014 OVC021 13/12 A2972 RMK AO2 T01280123
KPRO 191655Z AUTO 30009G15KT 10SM SCT009 BKN014 OVC031 14/13 A2971 RMK AO2 T01360132
KPRO 191635Z AUTO 32010KT 10SM OVC009 13/13 A2970 RMK AO2 T01260126
KPRO 191615Z AUTO 31010KT 3SM BR BKN007 OVC012 12/12 A2970 RMK AO2 T01210121
KPRO 191555Z AUTO 33009KT 7SM BKN007 OVC010 12/12 A2969 RMK AO2 T01220122
KPRO 191535Z AUTO 32008KT 2 1/2SM BR OVC005 12/12 A2968 RMK AO2 T01210121
KPRO 191515Z AUTO 32011KT 1 3/4SM BR OVC005 12/12 A2967 RMK AO2 T01240124
KPRO 191455Z AUTO 31008KT 2SM BR OVC005 12/12 A2965 RMK AO2 60002 T01230123
KPRO 191435Z AUTO 31008KT 1 3/4SM BR OVC005 13/13 A2964 RMK AO2 T01250125
KPRO 191415Z AUTO 31008KT 2SM BR OVC005 13/13 A2963 RMK AO2 T01250125
KPRO 191355Z AUTO 32008KT 1 1/2SM -DZ 13/13 A2962 RMK AO2 T01260126
KPRO 191335Z AUTO 34008KT 1 1/4SM DZ OVC004 14/14 A2961 RMK AO2 P0001 T01350135
KPRO 191315Z AUTO 29013KT 2SM DZ OVC006 14/14 A2960 RMK AO2 T01410141
KPRO 191255Z AUTO 28009KT 2 1/2SM DZ OVC004 14/14 A2960 RMK AO2 P0002 T01430143
KPRO 191235Z AUTO 28010KT 4SM RA OVC006 15/15 A2960 RMK AO2 T01460146
KPRO 191215Z AUTO 28008KT 7SM BKN008 OVC027 15/15 A2960 RMK AO2 T01460146
KPRO 191155Z AUTO 27007KT 10SM OVC027 15/15 A2960 RMK AO2 70035 T01450145 10149 20141
KPRO 191135Z AUTO 25005KT 10SM BKN029 OVC070 14/14 A2958 RMK AO2 T01420142
KPRO 191115Z AUTO 27006KT 10SM BKN029 OVC080 14/14 A2957 RMK AO2 T01410141
KPRO 191055Z AUTO 28008KT 10SM BKN029 OVC070 14/14 A2957 RMK AO2 T01420142
KPRO 191035Z AUTO 28007KT 10SM BKN031 OVC070 14/14 A2957 RMK AO2 T01420142
KPRO 191015Z AUTO 30006KT 10SM BKN035 OVC060 14/14 A2956 RMK AO2 T01420142
KPRO 190955Z AUTO 29007KT 10SM SCT035 OVC060 14/14 A2956 RMK AO2 T01420142
KPRO 190935Z AUTO 30006KT 10SM BKN065 OVC070 14/14 A2956 RMK AO2 T01420142
KPRO 190915Z AUTO 30007KT 10SM OVC065 14/14 A2956 RMK AO2 T01420142
KPRO 190855Z AUTO 30006KT 10SM BKN049 OVC065 14/14 A2956 RMK AO2 T01420142
KPRO 190835Z AUTO 29007KT 10SM OVC047 14/14 A2956 RMK AO2 T01440144
KPRO 190815Z AUTO 30004KT 10SM OVC043 14/14 A2956 RMK AO2 T01430143
KPRO 190755Z AUTO 33005KT 10SM SCT008 BKN039 OVC065 15/15 A2956 RMK AO2 T01450145
KPRO 190735Z AUTO 35009KT 10SM BKN008 OVC012 15/15 A2956 RMK AO2 T01450145
KPRO 190715Z AUTO 33007KT 4SM -DZ SCT006 BKN010 OVC050 15/15 A2956 RMK AO2 T01450145
KPRO 190655Z AUTO 33010KT 5SM -RA SCT008 SCT029 OVC050 15/15 A2956 RMK AO2 T01450145
KPRO 190635Z AUTO 32010KT 10SM BKN008 BKN029 OVC050 15/15 A2957 RMK AO2 T01460146
KPRO 190615Z AUTO 32007KT 7SM -DZ OVC006 15/15 A2957 RMK AO2 T01470147
KPRO 190555Z AUTO 33008KT 5SM DZ BKN006 BKN048 OVC050 15/15 A2957 RMK AO2 P0006 60033 T01500150 10177 20150
KPRO 190535Z AUTO 31009KT 4SM DZ BKN006 OVC050 15/15 A2958 RMK AO2 P0005 T01500150
KPRO 190515Z AUTO 31008KT 4SM RA BKN006 BKN011 OVC050 15/15 A2958 RMK AO2 P0003 T01500150
KPRO 190455Z AUTO 29011KT 3SM +RA BKN006 OVC032 15/15 A2958 RMK AO2 P0013 T01520152
KPRO 190435Z AUTO 29009KT 5SM RA SCT006 BKN032 OVC047 15/15 A2958 RMK AO2 P0002 T01530153
KPRO 190415Z AUTO 32009KT 4SM -RA SCT008 BKN039 OVC047 15/15 A2957 RMK AO2 P0001 T01530153
KPRO 190355Z AUTO 31009KT 3SM DZ BKN006 BKN011 OVC038 15/15 A2958 RMK AO2 P0006 T01530153 402800153
KPRO 190335Z AUTO 31008KT 3SM DZ BKN006 BKN018 OVC030 16/16 A2958 RMK AO2 P0005 T01550155
KPRO 190315Z AUTO 30009KT 3SM +DZ SCT006 BKN019 OVC036 16/16 A2958 RMK AO2 P0002 T01560156
KPRO 190255Z AUTO 30009KT 3SM DZ BKN006 BKN014 OVC019 16/16 A2960 RMK AO2 P0003 60005 T01620162
KPRO 190235Z AUTO 31005KT 4SM DZ SCT005 BKN011 OVC021 17/17 A2959 RMK AO2 P0001 T01680168
KPRO 190215Z AUTO 32004KT 7SM DZ BKN021 BKN033 OVC049 17/17 A2959 RMK AO2 T01680168
KPRO 190155Z AUTO 32006KT 7SM -DZ BKN049 OVC055 17/17 A2959 RMK AO2 P0002 T01700170
KPRO 190135Z AUTO 35007KT 10SM DZ BKN055 OVC075 17/17 A2957 RMK AO2 P0002 T01700170
KPRO 190115Z AUTO 01009KT 10SM RA SCT065 BKN075 OVC100 17/17 A2956 RMK AO2 P0001 T01720172
KPRO 190055Z AUTO 02006KT 10SM -DZ SCT050 SCT060 OVC100 17/17 A2954 RMK AO2 T01720172
KPRO 190035Z AUTO 07004KT 10SM -RA SCT049 BKN070 OVC110 18/18 A2956 RMK AO2 T01750175
KPRO 190015Z AUTO 00000KT 10SM -DZ SCT065 BKN070 OVC080 18/18 A2957 RMK AO2 T01750175
KPRO 182355Z AUTO 28005KT 10SM -DZ SCT065 OVC080 18/17 A2958 RMK AO2 P0002 60002 T01750174 10277 20175
KPRO 182335Z AUTO 23009KT 10SM DZ OVC090 18/17 A2960 RMK AO2 P0002 T01760174
KPRO 182315Z AUTO 22010KT 10SM -RA OVC090 18/17 A2960 RMK AO2 P0001 T01780173
KPRO 182255Z AUTO 21013KT 10SM -RA SCT060 BKN070 OVC090 18/18 A2960 RMK AO2 T01800176
KPRO 182235Z AUTO 21014KT 10SM -RA SCT070 OVC090 18/18 A2961 RMK AO2 T01810179
KPRO 182215Z AUTO 20015G20KT 10SM RA SCT070 BKN090 OVC110 18/18 A2963 RMK AO2 T01840180
KPRO 182155Z AUTO 20016G20KT 10SM BKN110 19/18 A2963 RMK AO2 T01890180
KPRO 182135Z AUTO 20016G25KT 10SM -RA SCT033 SCT049 BKN090 19/18 A2962 RMK AO2 T01940180
KPRO 182115Z AUTO 21019G24KT 10SM -RA SCT037 BKN047 OVC070 21/16 A2962 RMK AO2 T02100160
KPRO 182055Z AUTO 21010G14KT 10SM -RA OVC048 23/17 A2962 RMK AO2 T02250170
KPRO 182035Z AUTO 20009KT 10SM BKN050 BKN070 23/17 A2962 RMK AO2 T02330168
KPRO 182015Z AUTO 19012KT 10SM SCT050 BKN070 24/16 A2962 RMK AO2 T02390159
KPRO 181955Z AUTO 21012KT 10SM OVC050 25/16 A2962 RMK AO2 T02500161
KPRO 181935Z AUTO 20012KT 10SM OVC050 26/16 A2960 RMK AO2 T02570156
KPRO 181915Z AUTO 20012KT 10SM OVC050 26/15 A2960 RMK AO2 T02560151
KPRO 181855Z AUTO 20013KT 10SM OVC050 26/16 A2956 RMK AO2 T02620155
KPRO 181835Z AUTO 20012G20KT 10SM SCT045 OVC050 26/16 A2959 RMK AO2 T02640162
KPRO 181815Z AUTO 21015G22KT 10SM OVC050 27/14 A2958 RMK AO2 T02720138
KPRO 181755Z AUTO 21014KT 10SM BKN050 28/14 A2957 RMK AO2 T02760143 10280 20183
KPRO 181735Z AUTO 21016G23KT 10SM SCT050 28/14 A2957 RMK AO2 T02760138
KPRO 181715Z AUTO 20015G20KT 10SM CLR 28/14 A2957 RMK AO2 T02800141
KPRO 181655Z AUTO 20016G20KT 10SM CLR 27/17 A2957 RMK AO2 T02700172
KPRO 181635Z AUTO 19016KT 10SM CLR 26/18 A2957 RMK AO2 T02600179
KPRO 181615Z AUTO 20017G22KT 10SM CLR 25/19 A2955 RMK AO2 T02490188
KPRO 181555Z AUTO 18017G20KT 10SM CLR 24/19 A2954 RMK AO2 T02370190
KPRO 181535Z AUTO 17015KT 10SM CLR 23/19 A2953 RMK AO2 T02270192
KPRO 181515Z AUTO 16016G21KT 10SM CLR 22/19 A2952 RMK AO2 T02230192
KPRO 181455Z AUTO 15015KT 10SM CLR 21/18 A2951 RMK AO2 T02100182
KPRO 181435Z AUTO 14016G19KT 10SM CLR 20/18 A2950 RMK AO2 T02020183
KPRO 181415Z AUTO 14015KT 10SM -RA SCT049 SCT060 SCT075 20/19 A2955 RMK AO2 T01970190
KPRO 181355Z AUTO 18017G21KT 10SM SCT120 20/19 A2963 RMK AO2 T02030194
KPRO 181335Z AUTO 17014KT 10SM OVC110 20/19 A2961 RMK AO2 T01990191
KPRO 181315Z AUTO 17013KT 10SM BKN100 19/19 A2961 RMK AO2 T01940189
KPRO 181255Z AUTO 16009KT 10SM SCT100 19/19 A2961 RMK AO2 T01920186
KPRO 181235Z AUTO 20007KT 10SM BKN100 19/18 A2961 RMK AO2 T01890181
KPRO 181215Z AUTO 17007KT 10SM -RA SCT050 SCT070 BKN110 18/18 A2962 RMK AO2 T01830177
KPRO 181155Z AUTO 17010KT 10SM BKN110 19/17 A2964 RMK AO2 70017 T01860173 10195 20172
KPRO 181135Z AUTO 16009KT 10SM CLR 19/17 A2963 RMK AO2 T01880170
KPRO 181115Z AUTO 17010KT 10SM CLR 19/17 A2963 RMK AO2 T01860170
KPRO 181055Z AUTO 18008KT 10SM SCT090 19/17 A2962 RMK AO2 T01860170
KPRO 181035Z AUTO 18014KT 10SM SCT090 19/17 A2962 RMK AO2 T01880169
KPRO 181015Z AUTO 16008KT 10SM BKN090 OVC110 19/17 A2961 RMK AO2 T01900167
KPRO 180955Z AUTO 15009KT 10SM SCT080 BKN110 19/17 A2960 RMK AO2 T01900166
KPRO 180935Z AUTO 14011KT 10SM SCT075 19/17 A2960 RMK AO2 T01900165